CheckWX is a tool to help pilots better visualize weather data.  It is not intended as a substitute for an official pre-flight weather briefing.

16:57:35 UTC

KOLM TAF
Olympia Regional Airport
Olympia, Washington, USA
KOLM 181139Z 1812/1912 21008KT P6SM BKN020 BKN035 FM182000 24008KT P6SM SCT025 BKN040

Jun-18@
12:00 UTC

Jun-18 @ 12:00 UTC

Jun-18@
20:00 UTC

Jun-18 @ 20:00 UTC

KOLM 181139Z 1812/1912 21008KT P6SM BKN020 BKN035
Wind
  • 210° at 8 KTS
Cloud Levels
  • Broken at 2,000' AGL
  • Broken at 3,500' AGL

Jun-18@
20:00 UTC

Jun-18 @ 20:00 UTC

Jun-19@
12:00 UTC

Jun-19 @ 12:00 UTC

FM182000 24008KT P6SM SCT025 BKN040

From

From Standard forecast or significant change

Wind
  • 240° at 8 KTS
Cloud Levels
  • Scattered at 2,500' AGL
  • Broken at 4,000' AGL